sensor_id;sensor_type;location;lat;lon;timestamp;pressure;altitude;pressure_sealevel;temperature;humidity
70684;BME280;58263;48.146;11.440;2023-12-20T00:00:11;95673.56;;;5.60;53.89
70684;BME280;58263;48.146;11.440;2023-12-20T00:02:37;95665.38;;;5.62;54.15
70684;BME280;58263;48.146;11.440;2023-12-20T00:05:02;95651.72;;;5.65;53.91
70684;BME280;58263;48.146;11.440;2023-12-20T00:07:27;95649.84;;;5.65;54.14
70684;BME280;58263;48.146;11.440;2023-12-20T00:09:53;95642.28;;;5.62;55.10
70684;BME280;58263;48.146;11.440;2023-12-20T00:12:18;95649.84;;;5.65;54.58
70684;BME280;58263;48.146;11.440;2023-12-20T00:14:43;95645.56;;;5.71;54.75
70684;BME280;58263;48.146;11.440;2023-12-20T00:17:08;95641.25;;;5.76;54.36
70684;BME280;58263;48.146;11.440;2023-12-20T00:19:34;95640.25;;;5.84;53.88
70684;BME280;58263;48.146;11.440;2023-12-20T00:21:59;95643.53;;;5.93;53.39
70684;BME280;58263;48.146;11.440;2023-12-20T00:24:24;95638.41;;;5.91;53.83
70684;BME280;58263;48.146;11.440;2023-12-20T00:26:50;95641.47;;;5.82;53.90
70684;BME280;58263;48.146;11.440;2023-12-20T00:29:15;95645.16;;;5.81;52.92
70684;BME280;58263;48.146;11.440;2023-12-20T00:31:40;95639.47;;;5.90;53.07
70684;BME280;58263;48.146;11.440;2023-12-20T00:34:05;95630.63;;;5.83;52.71
70684;BME280;58263;48.146;11.440;2023-12-20T00:36:31;95630.25;;;5.86;53.07
70684;BME280;58263;48.146;11.440;2023-12-20T00:38:56;95630.84;;;5.82;51.84
70684;BME280;58263;48.146;11.440;2023-12-20T00:41:22;95623.88;;;5.81;52.08
70684;BME280;58263;48.146;11.440;2023-12-20T00:43:47;95622.84;;;5.82;52.04
70684;BME280;58263;48.146;11.440;2023-12-20T00:46:12;95620.00;;;5.97;52.23
70684;BME280;58263;48.146;11.440;2023-12-20T00:48:37;95612.63;;;5.92;52.75
70684;BME280;58263;48.146;11.440;2023-12-20T00:51:03;95604.47;;;6.00;51.48
70684;BME280;58263;48.146;11.440;2023-12-20T00:53:28;95606.72;;;6.03;51.72
70684;BME280;58263;48.146;11.440;2023-12-20T00:56:17;95607.31;;;5.92;51.95
70684;BME280;58263;48.146;11.440;2023-12-20T00:58:42;95617.16;;;6.05;51.56
70684;BME280;58263;48.146;11.440;2023-12-20T01:01:08;95610.59;;;6.07;51.23
70684;BME280;58263;48.146;11.440;2023-12-20T01:03:33;95613.47;;;5.99;52.02
70684;BME280;58263;48.146;11.440;2023-12-20T01:05:58;95586.84;;;5.99;51.23
70684;BME280;58263;48.146;11.440;2023-12-20T01:08:23;95597.50;;;5.99;52.15
70684;BME280;58263;48.146;11.440;2023-12-20T01:10:49;95595.66;;;6.00;51.43
70684;BME280;58263;48.146;11.440;2023-12-20T01:13:14;95587.28;;;6.09;51.39
70684;BME280;58263;48.146;11.440;2023-12-20T01:15:39;95598.09;;;6.08;51.94
70684;BME280;58263;48.146;11.440;2023-12-20T01:18:08;95592.38;;;6.04;52.35
70684;BME280;58263;48.146;11.440;2023-12-20T01:20:37;95588.72;;;6.05;52.31
70684;BME280;58263;48.146;11.440;2023-12-20T01:23:02;95585.63;;;6.02;52.11
70684;BME280;58263;48.146;11.440;2023-12-20T01:25:27;95582.16;;;6.01;52.21
70684;BME280;58263;48.146;11.440;2023-12-20T01:27:52;95571.28;;;6.09;52.39
70684;BME280;58263;48.146;11.440;2023-12-20T01:30:18;95575.78;;;6.02;53.00
70684;BME280;58263;48.146;11.440;2023-12-20T01:32:43;95566.19;;;6.01;52.74
70684;BME280;58263;48.146;11.440;2023-12-20T01:35:08;95567.59;;;6.04;53.08
70684;BME280;58263;48.146;11.440;2023-12-20T01:37:33;95568.84;;;6.01;52.54
70684;BME280;58263;48.146;11.440;2023-12-20T01:39:59;95568.84;;;6.01;53.58
70684;BME280;58263;48.146;11.440;2023-12-20T01:42:24;95564.53;;;6.00;53.05
70684;BME280;58263;48.146;11.440;2023-12-20T01:44:49;95565.97;;;6.03;53.49
70684;BME280;58263;48.146;11.440;2023-12-20T01:47:15;95555.72;;;6.06;53.27
70684;BME280;58263;48.146;11.440;2023-12-20T01:49:40;95553.25;;;6.05;53.01
70684;BME280;58263;48.146;11.440;2023-12-20T01:52:06;95540.97;;;6.04;53.60
70684;BME280;58263;48.146;11.440;2023-12-20T01:54:32;95538.50;;;6.02;53.52
70684;BME280;58263;48.146;11.440;2023-12-20T01:56:57;95542.41;;;6.06;53.13
70684;BME280;58263;48.146;11.440;2023-12-20T01:59:23;95530.72;;;6.07;53.81
70684;BME280;58263;48.146;11.440;2023-12-20T02:01:48;95519.44;;;6.12;53.30
70684;BME280;58263;48.146;11.440;2023-12-20T02:04:14;95513.94;;;6.14;52.85
70684;BME280;58263;48.146;11.440;2023-12-20T02:06:40;95510.84;;;6.10;53.26
70684;BME280;58263;48.146;11.440;2023-12-20T02:09:05;95502.06;;;6.09;53.23
70684;BME280;58263;48.146;11.440;2023-12-20T02:11:30;95503.28;;;6.14;53.28
70684;BME280;58263;48.146;11.440;2023-12-20T02:13:56;95510.63;;;6.25;53.18
70684;BME280;58263;48.146;11.440;2023-12-20T02:16:22;95503.06;;;6.22;53.33
70684;BME280;58263;48.146;11.440;2023-12-20T02:18:47;95514.72;;;6.28;53.21
70684;BME280;58263;48.146;11.440;2023-12-20T02:21:12;95498.34;;;6.17;53.69
70684;BME280;58263;48.146;11.440;2023-12-20T02:23:37;95511.44;;;6.19;54.09
70684;BME280;58263;48.146;11.440;2023-12-20T02:26:04;95512.25;;;6.26;54.08
70684;BME280;58263;48.146;11.440;2023-12-20T02:28:30;95508.97;;;6.24;54.40
70684;BME280;58263;48.146;11.440;2023-12-20T02:30:55;95502.19;;;6.28;54.82
70684;BME280;58263;48.146;11.440;2023-12-20T02:33:21;95491.56;;;6.28;55.53
70684;BME280;58263;48.146;11.440;2023-12-20T02:35:46;95495.84;;;6.29;55.48
70684;BME280;58263;48.146;11.440;2023-12-20T02:38:12;95473.28;;;6.38;55.97
70684;BME280;58263;48.146;11.440;2023-12-20T02:40:37;95476.78;;;6.32;56.35
70684;BME280;58263;48.146;11.440;2023-12-20T02:43:03;95469.59;;;6.39;56.62
70684;BME280;58263;48.146;11.440;2023-12-20T02:45:28;95467.09;;;6.45;56.21
70684;BME280;58263;48.146;11.440;2023-12-20T02:47:54;95470.19;;;6.41;56.58
70684;BME280;58263;48.146;11.440;2023-12-20T02:50:19;95468.75;;;6.46;56.81
70684;BME280;58263;48.146;11.440;2023-12-20T02:52:45;95476.34;;;6.35;57.64
70684;BME280;58263;48.146;11.440;2023-12-20T02:55:10;95472.66;;;6.36;57.26
70684;BME280;58263;48.146;11.440;2023-12-20T02:57:35;95472.47;;;6.38;57.34
70684;BME280;58263;48.146;11.440;2023-12-20T03:00:01;95474.94;;;6.39;57.37
70684;BME280;58263;48.146;11.440;2023-12-20T03:02:26;95471.66;;;6.37;57.54
70684;BME280;58263;48.146;11.440;2023-12-20T03:04:52;95492.56;;;6.27;58.43
70684;BME280;58263;48.146;11.440;2023-12-20T03:07:17;95485.78;;;6.31;58.65
70684;BME280;58263;48.146;11.440;2023-12-20T03:09:42;95488.06;;;6.34;59.10
70684;BME280;58263;48.146;11.440;2023-12-20T03:12:07;95483.13;;;6.31;59.75
70684;BME280;58263;48.146;11.440;2023-12-20T03:14:33;95481.06;;;6.40;59.69
70684;BME280;58263;48.146;11.440;2023-12-20T03:16:58;95488.88;;;6.35;60.35
70684;BME280;58263;48.146;11.440;2023-12-20T03:19:24;95489.28;;;6.38;60.73
70684;BME280;58263;48.146;11.440;2023-12-20T03:21:49;95485.59;;;6.39;60.91
70684;BME280;58263;48.146;11.440;2023-12-20T03:24:15;95486.63;;;6.38;61.14
70684;BME280;58263;48.146;11.440;2023-12-20T03:26:40;95492.75;;;6.32;61.61
70684;BME280;58263;48.146;11.440;2023-12-20T03:29:05;95487.63;;;6.37;61.86
70684;BME280;58263;48.146;11.440;2023-12-20T03:31:30;95496.44;;;6.38;62.25
70684;BME280;58263;48.146;11.440;2023-12-20T03:33:56;95504.03;;;6.34;62.79
70684;BME280;58263;48.146;11.440;2023-12-20T03:36:21;95496.66;;;6.36;62.68
70684;BME280;58263;48.146;11.440;2023-12-20T03:38:46;95519.59;;;6.37;63.26
70684;BME280;58263;48.146;11.440;2023-12-20T03:41:11;95527.19;;;6.34;63.84
70684;BME280;58263;48.146;11.440;2023-12-20T03:43:37;95529.47;;;6.30;64.35
70684;BME280;58263;48.146;11.440;2023-12-20T03:46:03;95543.78;;;6.36;65.02
70684;BME280;58263;48.146;11.440;2023-12-20T03:48:29;95538.66;;;6.34;65.46
70684;BME280;58263;48.146;11.440;2023-12-20T03:50:54;95535.81;;;6.29;66.19
70684;BME280;58263;48.146;11.440;2023-12-20T03:53:19;95538.91;;;6.26;67.15
70684;BME280;58263;48.146;11.440;2023-12-20T03:55:45;95541.78;;;6.24;68.17
70684;BME280;58263;48.146;11.440;2023-12-20T03:58:10;95534.59;;;6.25;69.02
70684;BME280;58263;48.146;11.440;2023-12-20T04:00:35;95539.34;;;6.09;70.02
70684;BME280;58263;48.146;11.440;2023-12-20T04:03:01;95536.06;;;6.07;70.71
70684;BME280;58263;48.146;11.440;2023-12-20T04:05:26;95530.72;;;6.07;71.07
70684;BME280;58263;48.146;11.440;2023-12-20T04:07:51;95524.38;;;6.08;71.23
70684;BME280;58263;48.146;11.440;2023-12-20T04:10:17;95534.41;;;6.06;72.28
70684;BME280;58263;48.146;11.440;2023-12-20T04:12:42;95545.03;;;5.93;73.71
70684;BME280;58263;48.146;11.440;2023-12-20T04:15:07;95542.00;;;5.83;75.00
70684;BME280;58263;48.146;11.440;2023-12-20T04:17:35;95531.75;;;5.86;75.77
70684;BME280;58263;48.146;11.440;2023-12-20T04:20:01;95536.03;;;5.81;76.78
70684;BME280;58263;48.146;11.440;2023-12-20T04:22:26;95537.09;;;5.80;77.14
70684;BME280;58263;48.146;11.440;2023-12-20T04:24:51;95537.69;;;5.82;76.99
70684;BME280;58263;48.146;11.440;2023-12-20T04:27:16;95535.44;;;5.72;77.64
70684;BME280;58263;48.146;11.440;2023-12-20T04:29:42;95534.63;;;5.71;77.86
70684;BME280;58263;48.146;11.440;2023-12-20T04:32:07;95539.75;;;5.66;78.17
70684;BME280;58263;48.146;11.440;2023-12-20T04:34:33;95533.41;;;5.67;78.48
70684;BME280;58263;48.146;11.440;2023-12-20T04:36:58;95540.97;;;5.64;78.93
70684;BME280;58263;48.146;11.440;2023-12-20T04:39:23;95534.41;;;5.66;78.90
70684;BME280;58263;48.146;11.440;2023-12-20T04:41:48;95546.28;;;5.70;79.60
70684;BME280;58263;48.146;11.440;2023-12-20T04:44:15;95558.16;;;5.61;80.07
70684;BME280;58263;48.146;11.440;2023-12-20T04:46:40;95556.94;;;5.57;80.65
70684;BME280;58263;48.146;11.440;2023-12-20T04:49:05;95567.16;;;5.60;81.15
70684;BME280;58263;48.146;11.440;2023-12-20T04:51:33;95574.53;;;5.58;82.03
70684;BME280;58263;48.146;11.440;2023-12-20T04:53:59;95575.31;;;5.52;83.43
70684;BME280;58263;48.146;11.440;2023-12-20T04:56:24;95570.84;;;5.46;84.49
70684;BME280;58263;48.146;11.440;2023-12-20T04:58:49;95571.22;;;5.29;86.05
70684;BME280;58263;48.146;11.440;2023-12-20T05:01:14;95571.59;;;5.26;86.57
70684;BME280;58263;48.146;11.440;2023-12-20T05:03:40;95591.25;;;5.25;88.26
70684;BME280;58263;48.146;11.440;2023-12-20T05:06:05;95577.13;;;5.31;87.83
70684;BME280;58263;48.146;11.440;2023-12-20T05:08:30;95573.84;;;5.16;89.45
70684;BME280;58263;48.146;11.440;2023-12-20T05:10:56;95580.81;;;5.17;89.65
70684;BME280;58263;48.146;11.440;2023-12-20T05:13:21;95582.66;;;5.23;90.21
70684;BME280;58263;48.146;11.440;2023-12-20T05:15:47;95588.97;;;5.22;90.91
70684;BME280;58263;48.146;11.440;2023-12-20T05:18:13;95592.06;;;5.25;90.24
70684;BME280;58263;48.146;11.440;2023-12-20T05:20:38;95586.50;;;5.14;91.19
70684;BME280;58263;48.146;11.440;2023-12-20T05:23:03;95595.28;;;5.07;92.17
70684;BME280;58263;48.146;11.440;2023-12-20T05:25:28;95602.69;;;5.19;91.96
70684;BME280;58263;48.146;11.440;2023-12-20T05:27:54;95598.97;;;5.06;92.53
70684;BME280;58263;48.146;11.440;2023-12-20T05:30:19;95606.69;;;5.01;92.69
70684;BME280;58263;48.146;11.440;2023-12-20T05:32:44;95604.63;;;4.90;93.81
70684;BME280;58263;48.146;11.440;2023-12-20T05:35:10;95611.16;;;4.87;94.21
70684;BME280;58263;48.146;11.440;2023-12-20T05:37:35;95602.13;;;4.82;94.17
70684;BME280;58263;48.146;11.440;2023-12-20T05:40:00;95617.69;;;4.85;93.80
70684;BME280;58263;48.146;11.440;2023-12-20T05:42:25;95619.91;;;4.81;92.94
70684;BME280;58263;48.146;11.440;2023-12-20T05:44:51;95627.88;;;4.81;93.24
70684;BME280;58263;48.146;11.440;2023-12-20T05:47:16;95632.75;;;4.71;92.80
70684;BME280;58263;48.146;11.440;2023-12-20T05:49:43;95633.09;;;4.61;93.39
70684;BME280;58263;48.146;11.440;2023-12-20T05:52:08;95638.03;;;4.64;92.92
70684;BME280;58263;48.146;11.440;2023-12-20T05:54:33;95630.97;;;4.50;92.85
70684;BME280;58263;48.146;11.440;2023-12-20T05:56:59;95636.72;;;4.53;93.09
70684;BME280;58263;48.146;11.440;2023-12-20T05:59:25;95648.31;;;4.46;93.15
70684;BME280;58263;48.146;11.440;2023-12-20T06:01:50;95650.97;;;4.46;93.78
70684;BME280;58263;48.146;11.440;2023-12-20T06:04:16;95649.59;;;4.56;93.23
70684;BME280;58263;48.146;11.440;2023-12-20T06:06:42;95652.56;;;4.40;93.80
70684;BME280;58263;48.146;11.440;2023-12-20T06:09:07;95655.47;;;4.45;94.02
70684;BME280;58263;48.146;11.440;2023-12-20T06:11:32;95656.06;;;4.40;93.76
70684;BME280;58263;48.146;11.440;2023-12-20T06:13:58;95651.75;;;4.39;93.59
70684;BME280;58263;48.146;11.440;2023-12-20T06:16:23;95665.22;;;4.38;94.06
70684;BME280;58263;48.146;11.440;2023-12-20T06:18:48;95670.75;;;4.36;94.59
70684;BME280;58263;48.146;11.440;2023-12-20T06:21:13;95673.41;;;4.36;95.06
70684;BME280;58263;48.146;11.440;2023-12-20T06:23:39;95676.06;;;4.36;95.25
70684;BME280;58263;48.146;11.440;2023-12-20T06:26:04;95674.59;;;4.34;94.66
70684;BME280;58263;48.146;11.440;2023-12-20T06:28:30;95678.59;;;4.23;95.80
70684;BME280;58263;48.146;11.440;2023-12-20T06:30:55;95681.75;;;4.12;95.20
70684;BME280;58263;48.146;11.440;2023-12-20T06:33:22;95687.19;;;4.25;95.07
70684;BME280;58263;48.146;11.440;2023-12-20T06:35:47;95687.63;;;4.29;94.56
70684;BME280;58263;48.146;11.440;2023-12-20T06:38:13;95699.38;;;4.19;94.83
70684;BME280;58263;48.146;11.440;2023-12-20T06:40:38;95697.81;;;4.25;95.34
70684;BME280;58263;48.146;11.440;2023-12-20T06:43:03;95706.50;;;4.12;96.33
70684;BME280;58263;48.146;11.440;2023-12-20T06:45:28;95697.31;;;4.15;95.73
70684;BME280;58263;48.146;11.440;2023-12-20T06:47:54;95696.06;;;4.11;96.63
70684;BME280;58263;48.146;11.440;2023-12-20T06:50:20;95710.34;;;4.10;95.97
70684;BME280;58263;48.146;11.440;2023-12-20T06:52:45;95704.38;;;4.07;96.44
70684;BME280;58263;48.146;11.440;2023-12-20T06:55:10;95706.38;;;3.99;96.44
70684;BME280;58263;48.146;11.440;2023-12-20T06:57:35;95694.34;;;4.03;96.68
70684;BME280;58263;48.146;11.440;2023-12-20T07:00:02;95702.50;;;4.01;96.98
70684;BME280;58263;48.146;11.440;2023-12-20T07:02:28;95710.09;;;4.04;96.64
70684;BME280;58263;48.146;11.440;2023-12-20T07:04:55;95721.81;;;3.95;96.00
70684;BME280;58263;48.146;11.440;2023-12-20T07:07:20;95727.00;;;4.03;95.95
70684;BME280;58263;48.146;11.440;2023-12-20T07:09:46;95727.41;;;4.00;95.84
70684;BME280;58263;48.146;11.440;2023-12-20T07:12:11;95740.28;;;4.03;95.48
70684;BME280;58263;48.146;11.440;2023-12-20T07:14:36;95732.72;;;4.00;95.22
70684;BME280;58263;48.146;11.440;2023-12-20T07:17:02;95733.28;;;3.96;95.77
70684;BME280;58263;48.146;11.440;2023-12-20T07:19:28;95749.00;;;3.97;95.83
70684;BME280;58263;48.146;11.440;2023-12-20T07:21:53;95749.63;;;3.99;95.53
70684;BME280;58263;48.146;11.440;2023-12-20T07:24:18;95746.16;;;3.99;95.53
70684;BME280;58263;48.146;11.440;2023-12-20T07:26:43;95749.00;;;3.97;95.70
70684;BME280;58263;48.146;11.440;2023-12-20T07:29:09;95748.00;;;3.98;96.08
70684;BME280;58263;48.146;11.440;2023-12-20T07:31:34;95749.41;;;3.94;95.98
70684;BME280;58263;48.146;11.440;2023-12-20T07:34:00;95758.97;;;3.95;96.12
70684;BME280;58263;48.146;11.440;2023-12-20T07:36:25;95756.97;;;3.97;95.94
70684;BME280;58263;48.146;11.440;2023-12-20T07:38:50;95757.78;;;3.98;95.95
70684;BME280;58263;48.146;11.440;2023-12-20T07:41:15;95753.50;;;3.97;95.76
70684;BME280;58263;48.146;11.440;2023-12-20T07:43:41;95760.00;;;3.94;95.27
70684;BME280;58263;48.146;11.440;2023-12-20T07:46:07;95762.22;;;3.91;95.72
70684;BME280;58263;48.146;11.440;2023-12-20T07:48:35;95769.97;;;3.92;95.33
70684;BME280;58263;48.146;11.440;2023-12-20T07:51:02;95766.00;;;4.03;94.69
70684;BME280;58263;48.146;11.440;2023-12-20T07:53:27;95762.75;;;4.01;94.96
70684;BME280;58263;48.146;11.440;2023-12-20T07:55:52;95766.28;;;4.08;94.84
70684;BME280;58263;48.146;11.440;2023-12-20T07:58:18;95766.09;;;4.10;94.30
70684;BME280;58263;48.146;11.440;2023-12-20T08:00:43;95771.91;;;3.98;94.58
70684;BME280;58263;48.146;11.440;2023-12-20T08:03:09;95774.56;;;3.98;94.31
70684;BME280;58263;48.146;11.440;2023-12-20T08:05:34;95777.13;;;3.92;94.86
70684;BME280;58263;48.146;11.440;2023-12-20T08:07:59;95786.44;;;4.02;95.12
70684;BME280;58263;48.146;11.440;2023-12-20T08:10:25;95786.97;;;3.98;95.17
70684;BME280;58263;48.146;11.440;2023-12-20T08:12:50;95792.75;;;4.01;95.47
70684;BME280;58263;48.146;11.440;2023-12-20T08:15:15;95796.78;;;3.97;95.44
70684;BME280;58263;48.146;11.440;2023-12-20T08:17:41;95794.00;;;4.05;95.21
70684;BME280;58263;48.146;11.440;2023-12-20T08:20:07;95802.28;;;3.96;95.20
70684;BME280;58263;48.146;11.440;2023-12-20T08:22:32;95804.94;;;3.96;95.32
70684;BME280;58263;48.146;11.440;2023-12-20T08:24:57;95796.25;;;3.87;94.85
70684;BME280;58263;48.146;11.440;2023-12-20T08:27:22;95794.94;;;3.98;95.03
70684;BME280;58263;48.146;11.440;2023-12-20T08:29:48;95802.09;;;3.97;94.68
70684;BME280;58263;48.146;11.440;2023-12-20T08:32:14;95808.78;;;3.93;94.76
70684;BME280;58263;48.146;11.440;2023-12-20T08:34:39;95804.09;;;3.95;94.97
70684;BME280;58263;48.146;11.440;2023-12-20T08:37:05;95797.97;;;3.95;94.95
70684;BME280;58263;48.146;11.440;2023-12-20T08:39:30;95804.47;;;3.92;94.41
70684;BME280;58263;48.146;11.440;2023-12-20T08:41:55;95801.63;;;3.94;94.65
70684;BME280;58263;48.146;11.440;2023-12-20T08:44:20;95793.75;;;4.00;95.17
70684;BME280;58263;48.146;11.440;2023-12-20T08:46:47;95806.19;;;4.00;95.72
70684;BME280;58263;48.146;11.440;2023-12-20T08:49:13;95812.59;;;4.05;95.28
70684;BME280;58263;48.146;11.440;2023-12-20T08:51:38;95805.81;;;4.03;94.84
70684;BME280;58263;48.146;11.440;2023-12-20T08:54:06;95796.47;;;4.07;95.07
70684;BME280;58263;48.146;11.440;2023-12-20T08:56:33;95798.81;;;4.17;95.00
70684;BME280;58263;48.146;11.440;2023-12-20T08:58:58;95792.88;;;4.15;95.59
70684;BME280;58263;48.146;11.440;2023-12-20T09:01:24;95794.88;;;4.13;95.43
70684;BME280;58263;48.146;11.440;2023-12-20T09:03:49;95796.69;;;4.27;94.67
70684;BME280;58263;48.146;11.440;2023-12-20T09:06:14;95799.94;;;4.29;94.91
70684;BME280;58263;48.146;11.440;2023-12-20T09:08:40;95801.00;;;4.28;94.77
70684;BME280;58263;48.146;11.440;2023-12-20T09:11:06;95793.44;;;4.32;94.29
70684;BME280;58263;48.146;11.440;2023-12-20T09:13:32;95801.59;;;4.30;95.03
70684;BME280;58263;48.146;11.440;2023-12-20T09:15:57;95799.53;;;4.26;95.08
70684;BME280;58263;48.146;11.440;2023-12-20T09:18:23;95805.06;;;4.31;94.46
70684;BME280;58263;48.146;11.440;2023-12-20T09:20:48;95788.53;;;4.29;94.59
70684;BME280;58263;48.146;11.440;2023-12-20T09:23:14;95801.22;;;4.33;94.58
70684;BME280;58263;48.146;11.440;2023-12-20T09:25:39;95807.25;;;4.42;94.13
70684;BME280;58263;48.146;11.440;2023-12-20T09:28:04;95801.28;;;4.40;94.31
70684;BME280;58263;48.146;11.440;2023-12-20T09:30:30;95809.75;;;4.29;94.79
70684;BME280;58263;48.146;11.440;2023-12-20T09:32:55;95802.59;;;4.29;94.49
70684;BME280;58263;48.146;11.440;2023-12-20T09:35:21;95800.78;;;4.30;94.90
70684;BME280;58263;48.146;11.440;2023-12-20T09:37:46;95796.81;;;4.40;94.96
70684;BME280;58263;48.146;11.440;2023-12-20T09:40:13;95809.91;;;4.42;94.36
70684;BME280;58263;48.146;11.440;2023-12-20T09:43:02;95811.28;;;4.38;94.33
70684;BME280;58263;48.146;11.440;2023-12-20T09:45:29;95806.59;;;4.40;93.77
70684;BME280;58263;48.146;11.440;2023-12-20T09:47:56;95801.66;;;4.37;94.46
70684;BME280;58263;48.146;11.440;2023-12-20T09:50:22;95805.25;;;4.29;94.47
70684;BME280;58263;48.146;11.440;2023-12-20T09:52:52;95800.84;;;4.36;94.83
70684;BME280;58263;48.146;11.440;2023-12-20T09:55:19;95798.63;;;4.40;94.20
70684;BME280;58263;48.146;11.440;2023-12-20T09:57:46;95800.09;;;4.43;94.58
70684;BME280;58263;48.146;11.440;2023-12-20T10:00:12;95792.75;;;4.45;94.11
70684;BME280;58263;48.146;11.440;2023-12-20T10:02:41;95788.31;;;4.52;93.76
70684;BME280;58263;48.146;11.440;2023-12-20T10:05:08;95781.88;;;4.61;93.22
70684;BME280;58263;48.146;11.440;2023-12-20T10:07:40;95781.06;;;4.67;93.20
70684;BME280;58263;48.146;11.440;2023-12-20T10:10:06;95767.75;;;4.89;93.05
70684;BME280;58263;48.146;11.440;2023-12-20T10:12:33;95767.34;;;4.92;92.73
70684;BME280;58263;48.146;11.440;2023-12-20T10:14:58;95772.00;;;4.83;92.90
70684;BME280;58263;48.146;11.440;2023-12-20T10:17:23;95779.84;;;4.91;92.93
70684;BME280;58263;48.146;11.440;2023-12-20T10:19:49;95771.13;;;5.04;92.34
70684;BME280;58263;48.146;11.440;2023-12-20T10:22:15;95780.16;;;5.10;92.88
70684;BME280;58263;48.146;11.440;2023-12-20T10:24:40;95772.75;;;5.05;93.07
70684;BME280;58263;48.146;11.440;2023-12-20T10:27:07;95782.63;;;5.12;93.17
70684;BME280;58263;48.146;11.440;2023-12-20T10:29:36;95783.25;;;5.14;93.56
70684;BME280;58263;48.146;11.440;2023-12-20T10:34:46;95772.59;;;5.14;93.52
70684;BME280;58263;48.146;11.440;2023-12-20T10:37:12;95764.19;;;5.03;93.99
70684;BME280;58263;48.146;11.440;2023-12-20T10:39:38;95768.44;;;5.04;93.59
70684;BME280;58263;48.146;11.440;2023-12-20T10:42:04;95764.19;;;5.03;94.04
70684;BME280;58263;48.146;11.440;2023-12-20T10:44:30;95768.59;;;4.96;93.92
70684;BME280;58263;48.146;11.440;2023-12-20T10:46:55;95756.81;;;5.05;92.91
70684;BME280;58263;48.146;11.440;2023-12-20T10:49:24;95753.63;;;5.17;92.68
70684;BME280;58263;48.146;11.440;2023-12-20T10:51:52;95764.63;;;5.14;93.09
70684;BME280;58263;48.146;11.440;2023-12-20T10:54:19;95761.38;;;5.12;93.09
70684;BME280;58263;48.146;11.440;2023-12-20T10:56:44;95756.66;;;5.14;93.77
70684;BME280;58263;48.146;11.440;2023-12-20T10:59:11;95766.41;;;5.00;93.45
70684;BME280;58263;48.146;11.440;2023-12-20T11:01:38;95761.28;;;4.98;93.54
70684;BME280;58263;48.146;11.440;2023-12-20T11:04:06;95758.63;;;4.98;93.84
70684;BME280;58263;48.146;11.440;2023-12-20T11:06:57;95758.22;;;5.01;93.35
70684;BME280;58263;48.146;11.440;2023-12-20T11:09:26;95756.97;;;4.97;93.15
70684;BME280;58263;48.146;11.440;2023-12-20T11:12:06;95752.34;;;5.06;92.96
70684;BME280;58263;48.146;11.440;2023-12-20T11:14:47;95749.63;;;4.99;93.67
70684;BME280;58263;48.146;11.440;2023-12-20T11:17:13;95754.00;;;5.14;92.46
70684;BME280;58263;48.146;11.440;2023-12-20T11:20:06;95746.78;;;5.01;93.07
70684;BME280;58263;48.146;11.440;2023-12-20T11:22:32;95744.16;;;5.07;92.63
70684;BME280;58263;48.146;11.440;2023-12-20T11:25:03;95740.50;;;5.15;92.68
70684;BME280;58263;48.146;11.440;2023-12-20T11:27:30;95740.53;;;5.22;92.00
70684;BME280;58263;48.146;11.440;2023-12-20T11:29:57;95740.81;;;5.34;91.43
70684;BME280;58263;48.146;11.440;2023-12-20T11:34:53;95732.69;;;5.49;90.46
70684;BME280;58263;48.146;11.440;2023-12-20T11:37:19;95729.56;;;5.32;90.08
70684;BME280;58263;48.146;11.440;2023-12-20T11:39:45;95730.16;;;5.34;89.85
70684;BME280;58263;48.146;11.440;2023-12-20T11:42:10;95724.06;;;5.47;89.25
70684;BME280;58263;48.146;11.440;2023-12-20T11:44:37;95721.41;;;5.47;89.64
70684;BME280;58263;48.146;11.440;2023-12-20T11:47:02;95717.34;;;5.44;89.48
70684;BME280;58263;48.146;11.440;2023-12-20T11:49:28;95711.63;;;5.47;88.92
70684;BME280;58263;48.146;11.440;2023-12-20T11:51:56;95705.88;;;5.50;88.80
70684;BME280;58263;48.146;11.440;2023-12-20T11:54:21;95719.41;;;5.55;88.84
70684;BME280;58263;48.146;11.440;2023-12-20T11:56:47;95711.81;;;5.46;88.67
70684;BME280;58263;48.146;11.440;2023-12-20T11:59:12;95703.84;;;5.46;88.11
70684;BME280;58263;48.146;11.440;2023-12-20T12:01:37;95700.78;;;5.55;88.09
70684;BME280;58263;48.146;11.440;2023-12-20T12:04:04;95697.91;;;5.50;87.44
70684;BME280;58263;48.146;11.440;2023-12-20T12:06:29;95680.13;;;5.51;87.06
70684;BME280;58263;48.146;11.440;2023-12-20T12:08:55;95694.44;;;5.50;86.79
70684;BME280;58263;48.146;11.440;2023-12-20T12:11:21;95701.78;;;5.48;86.94
70684;BME280;58263;48.146;11.440;2023-12-20T12:13:46;95702.25;;;5.58;87.06
70684;BME280;58263;48.146;11.440;2023-12-20T12:16:12;95696.47;;;5.54;87.48
70684;BME280;58263;48.146;11.440;2023-12-20T12:18:37;95698.56;;;5.59;86.87
70684;BME280;58263;48.146;11.440;2023-12-20T12:21:02;95694.81;;;5.47;85.84
70684;BME280;58263;48.146;11.440;2023-12-20T12:23:28;95690.75;;;5.51;85.88
70684;BME280;58263;48.146;11.440;2023-12-20T12:25:54;95692.38;;;5.52;86.53
70684;BME280;58263;48.146;11.440;2023-12-20T12:28:20;95688.50;;;5.54;85.99
70684;BME280;58263;48.146;11.440;2023-12-20T12:31:00;95686.22;;;5.45;85.46
70684;BME280;58263;48.146;11.440;2023-12-20T12:33:26;95682.16;;;5.49;86.50
70684;BME280;58263;48.146;11.440;2023-12-20T12:35:52;95685.63;;;5.49;86.14
70684;BME280;58263;48.146;11.440;2023-12-20T12:38:20;95682.13;;;5.42;86.93
70684;BME280;58263;48.146;11.440;2023-12-20T12:40:46;95678.84;;;5.47;87.04
70684;BME280;58263;48.146;11.440;2023-12-20T12:43:11;95672.13;;;5.51;87.70
70684;BME280;58263;48.146;11.440;2023-12-20T12:45:37;95668.88;;;5.62;86.86
70684;BME280;58263;48.146;11.440;2023-12-20T12:48:03;95665.72;;;5.38;87.48
70684;BME280;58263;48.146;11.440;2023-12-20T12:50:30;95676.00;;;5.41;85.97
70684;BME280;58263;48.146;11.440;2023-12-20T12:52:55;95672.47;;;5.34;86.13
70684;BME280;58263;48.146;11.440;2023-12-20T12:55:21;95685.41;;;5.44;86.13
70684;BME280;58263;48.146;11.440;2023-12-20T12:57:46;95676.81;;;5.49;85.70